createdAt,value
2019-05-30T00:03:25.694Z,101593.30
2019-05-30T00:09:34.279Z,101599.05
2019-05-30T00:15:40.335Z,101596.37
2019-05-30T00:21:46.125Z,101598.98
2019-05-30T00:27:51.945Z,101597.48
2019-05-30T00:33:59.606Z,101597.33
2019-05-30T00:40:06.161Z,101591.38
2019-05-30T00:46:11.990Z,101595.19
2019-05-30T00:52:18.310Z,101590.20
2019-05-30T00:58:24.110Z,101587.49
2019-05-30T01:04:30.061Z,101589.28
2019-05-30T01:10:36.014Z,101581.83
2019-05-30T01:16:42.839Z,101585.45
2019-05-30T01:22:48.960Z,101583.33
2019-05-30T01:28:54.877Z,101583.34
2019-05-30T01:35:02.117Z,101582.01
2019-05-30T01:41:08.493Z,101581.96
2019-05-30T01:47:14.335Z,101583.70
2019-05-30T01:53:20.428Z,101576.66
2019-05-30T01:59:26.615Z,101580.64
2019-05-30T02:05:32.619Z,101573.55
2019-05-30T02:11:39.001Z,101573.50
2019-05-30T02:17:45.142Z,101561.51
2019-05-30T02:23:50.973Z,101562.83
2019-05-30T02:29:56.839Z,101558.80
2019-05-30T02:36:04.005Z,101565.84
2019-05-30T02:42:11.684Z,101571.11
2019-05-30T02:48:17.850Z,101575.09
2019-05-30T02:54:23.910Z,101578.16
2019-05-30T03:00:37.755Z,101574.63
2019-05-30T03:06:44.123Z,101580.86
2019-05-30T03:12:49.917Z,101584.39
2019-05-30T03:18:55.696Z,101587.91
2019-05-30T03:25:02.992Z,101591.02
2019-05-30T03:31:21.902Z,101594.59
2019-05-30T03:37:27.847Z,101600.36
2019-05-30T03:43:25.713Z,101603.43
2019-05-30T03:49:35.942Z,101602.14
2019-05-30T03:55:44.406Z,101602.14
2019-05-30T04:02:02.322Z,101596.89
2019-05-30T04:08:12.371Z,101599.13
2019-05-30T04:14:24.129Z,101599.55
2019-05-30T04:20:30.544Z,101606.17
2019-05-30T04:26:36.328Z,101604.84
2019-05-30T04:32:42.599Z,101608.28
2019-05-30T04:38:48.405Z,101602.05
2019-05-30T04:44:54.389Z,101607.72
2019-05-30T04:51:00.145Z,101596.59
2019-05-30T04:57:06.221Z,101602.72
2019-05-30T05:03:13.056Z,101596.43
2019-05-30T05:09:20.291Z,101606.56
2019-05-30T05:15:26.859Z,101609.98
2019-05-30T05:21:32.823Z,101608.12
2019-05-30T05:27:38.576Z,101604.89
2019-05-30T05:33:56.133Z,101612.28
2019-05-30T05:39:52.029Z,101607.76
2019-05-30T05:45:58.152Z,101603.19
2019-05-30T05:52:04.025Z,101608.88
2019-05-30T05:58:09.773Z,101611.94
2019-05-30T06:04:17.076Z,101620.25
2019-05-30T06:10:24.281Z,101627.34
2019-05-30T06:16:30.142Z,101638.80
2019-05-30T06:22:36.155Z,101644.57
2019-05-30T06:28:42.106Z,101644.03
2019-05-30T06:34:49.099Z,101643.42
2019-05-30T06:40:55.119Z,101655.31
2019-05-30T06:47:01.090Z,101660.56
2019-05-30T06:53:07.366Z,101666.26
2019-05-30T06:59:13.175Z,101667.91
2019-05-30T07:05:19.877Z,101667.53
2019-05-30T07:11:26.807Z,101670.72
2019-05-30T07:17:33.649Z,101679.72
2019-05-30T07:23:40.042Z,101697.59
2019-05-30T07:29:45.880Z,101709.71
2019-05-30T07:35:53.193Z,101721.01
2019-05-30T07:42:06.172Z,101723.20
2019-05-30T07:48:06.602Z,101729.05
2019-05-30T07:54:12.852Z,101741.13
2019-05-30T08:00:27.284Z,101746.70
2019-05-30T08:06:33.882Z,101745.32
2019-05-30T08:12:40.014Z,101733.77
2019-05-30T08:18:45.960Z,101733.20
2019-05-30T08:24:51.888Z,101727.34
2019-05-30T08:30:57.916Z,101726.09
2019-05-30T08:37:03.775Z,101730.19
2019-05-30T08:43:09.787Z,101716.62
2019-05-30T08:49:17.020Z,101717.23
2019-05-30T08:55:23.296Z,101709.84
2019-05-30T09:01:29.251Z,101710.83
2019-05-30T09:07:36.388Z,101703.67
2019-05-30T09:13:42.728Z,101703.95
2019-05-30T09:19:48.498Z,101697.08
2019-05-30T09:25:54.929Z,101698.50
2019-05-30T09:32:01.124Z,101705.22
2019-05-30T09:38:07.282Z,101705.23
2019-05-30T09:44:13.254Z,101711.16
2019-05-30T09:50:19.674Z,101717.13
2019-05-30T09:56:25.875Z,101727.64
2019-05-30T10:02:31.657Z,101736.23
2019-05-30T10:08:37.589Z,101729.56
2019-05-30T10:14:45.179Z,101725.80
2019-05-30T10:20:51.994Z,101718.92
2019-05-30T10:26:58.793Z,101728.30
2019-05-30T10:33:05.094Z,101731.12
2019-05-30T10:39:11.012Z,101741.07
2019-05-30T10:45:17.553Z,101740.20
2019-05-30T10:51:23.627Z,101743.41
2019-05-30T10:57:29.404Z,101735.20
2019-05-30T11:03:35.235Z,101749.16
2019-05-30T11:09:48.706Z,101749.46
2019-05-30T11:15:55.501Z,101748.81
2019-05-30T11:22:01.365Z,101751.86
2019-05-30T11:28:07.951Z,101751.58
2019-05-30T11:34:13.798Z,101746.84
2019-05-30T11:40:21.178Z,101743.00
2019-05-30T11:46:28.817Z,101749.73
2019-05-30T11:52:34.854Z,101743.48
2019-05-30T11:58:40.643Z,101752.44
2019-05-30T12:04:46.393Z,101756.22
2019-05-30T12:10:53.105Z,101757.97
2019-05-30T12:16:59.500Z,101761.17
2019-05-30T12:23:05.956Z,101763.55
2019-05-30T12:29:11.852Z,101765.44
2019-05-30T12:35:18.339Z,101766.77
2019-05-30T12:41:24.733Z,101778.20
2019-05-30T12:47:31.161Z,101785.00
2019-05-30T12:53:37.108Z,101782.98
2019-05-30T12:59:43.543Z,101784.11
2019-05-30T13:05:49.419Z,101792.22
2019-05-30T13:11:56.353Z,101794.76
2019-05-30T13:18:03.071Z,101793.94
2019-05-30T13:24:09.234Z,101789.82
2019-05-30T13:30:16.516Z,101806.05
2019-05-30T13:36:22.451Z,101798.02
2019-05-30T13:42:28.326Z,101796.30
2019-05-30T13:48:35.835Z,101802.55
2019-05-30T13:54:41.662Z,101795.81
2019-05-30T14:00:47.711Z,101795.98
2019-05-30T14:06:53.952Z,101800.09
2019-05-30T14:13:00.773Z,101791.68
2019-05-30T14:19:09.801Z,101797.24
2019-05-30T14:25:15.348Z,101797.78
2019-05-30T14:31:21.361Z,101791.05
2019-05-30T14:37:27.251Z,101785.41
2019-05-30T14:43:33.429Z,101786.20
2019-05-30T14:49:39.378Z,101785.92
2019-05-30T14:55:46.073Z,101782.67
2019-05-30T15:01:52.861Z,101774.12
2019-05-30T15:07:59.251Z,101781.86
2019-05-30T15:14:06.670Z,101783.98
2019-05-30T15:20:15.444Z,101781.42
2019-05-30T15:26:22.260Z,101779.25
2019-05-30T15:32:28.192Z,101778.26
2019-05-30T15:38:34.889Z,101770.08
2019-05-30T15:44:40.671Z,101774.86
2019-05-30T15:50:46.831Z,101765.98
2019-05-30T15:56:52.722Z,101774.19
2019-05-30T16:02:59.008Z,101769.81
2019-05-30T16:09:07.030Z,101767.34
2019-05-30T16:15:15.530Z,101759.00
2019-05-30T16:21:22.455Z,101766.00
2019-05-30T16:27:31.097Z,101767.70
2019-05-30T16:33:36.793Z,101757.64
2019-05-30T16:39:43.200Z,101748.13
2019-05-30T16:45:48.971Z,101746.34
2019-05-30T16:51:55.130Z,101743.34
2019-05-30T16:58:01.195Z,101749.28
2019-05-30T17:04:07.233Z,101744.23
2019-05-30T17:10:25.673Z,101742.73
2019-05-30T17:16:22.191Z,101738.05
2019-05-30T17:22:30.507Z,101724.38
2019-05-30T17:28:35.900Z,101726.21
2019-05-30T17:34:41.925Z,101729.64
2019-05-30T17:40:49.695Z,101735.94
2019-05-30T17:46:55.734Z,101739.52
2019-05-30T17:53:01.845Z,101742.25
2019-05-30T17:59:08.005Z,101748.97
2019-05-30T18:05:15.158Z,101745.37
2019-05-30T18:11:20.931Z,101741.11
2019-05-30T18:17:27.236Z,101742.10
2019-05-30T18:23:33.491Z,101744.53
2019-05-30T18:29:39.369Z,101749.58
2019-05-30T18:35:45.402Z,101747.52
2019-05-30T18:41:51.450Z,101748.53
2019-05-30T18:47:57.232Z,101751.91
2019-05-30T18:54:03.286Z,101759.63
2019-05-30T19:00:13.258Z,101759.48
2019-05-30T19:06:18.365Z,101765.42
2019-05-30T19:12:24.330Z,101765.49
2019-05-30T19:18:31.507Z,101769.58
2019-05-30T19:24:37.581Z,101776.42
2019-05-30T19:30:43.634Z,101784.23
2019-05-30T19:36:49.547Z,101786.72
2019-05-30T19:42:55.469Z,101793.55
2019-05-30T19:49:01.407Z,101802.61
2019-05-30T19:55:07.942Z,101810.38
2019-05-30T20:01:13.729Z,101810.14
2019-05-30T20:07:19.938Z,101825.02
2019-05-30T20:13:26.976Z,101822.50
2019-05-30T20:19:33.490Z,101825.68
2019-05-30T20:25:43.666Z,101827.95
2019-05-30T20:31:47.145Z,101842.36
2019-05-30T20:37:53.192Z,101843.45
2019-05-30T20:43:59.378Z,101837.81
2019-05-30T20:50:06.288Z,101850.84
2019-05-30T20:56:12.405Z,101848.41
2019-05-30T21:02:18.372Z,101855.61
2019-05-30T21:08:25.199Z,101861.95
2019-05-30T21:14:35.494Z,101866.52
2019-05-30T21:20:42.167Z,101865.67
2019-05-30T21:26:48.026Z,101870.12
2019-05-30T21:32:54.039Z,101877.27
2019-05-30T21:39:00.299Z,101875.03
2019-05-30T21:45:06.993Z,101876.75
2019-05-30T21:51:13.173Z,101877.27
2019-05-30T21:57:19.086Z,101885.43
2019-05-30T22:03:25.381Z,101885.92
2019-05-30T22:09:31.417Z,101887.37
2019-05-30T22:15:37.385Z,101886.08
2019-05-30T22:21:44.188Z,101883.05
2019-05-30T22:27:50.537Z,101879.15
2019-05-30T22:33:56.753Z,101881.91
2019-05-30T22:40:02.605Z,101863.30
2019-05-30T22:46:08.530Z,101874.97
2019-05-30T22:52:14.321Z,101872.41
2019-05-30T22:58:20.309Z,101882.61
2019-05-30T23:04:26.222Z,101879.03
2019-05-30T23:10:32.155Z,101882.66
2019-05-30T23:16:38.175Z,101884.97
2019-05-30T23:22:44.199Z,101883.30
2019-05-30T23:28:50.290Z,101881.61
2019-05-30T23:34:56.383Z,101883.91
2019-05-30T23:41:02.729Z,101878.65
2019-05-30T23:47:08.504Z,101876.97
2019-05-30T23:53:14.543Z,101877.92
2019-05-30T23:59:20.465Z,101871.73
